Aviation Digital Data Service (ADDS)

Output produced by METARs form (1142 UTC 17 June 2019)
found at http://www.aviationweather.gov/metar/data/
 
METAR text: PKMJ 171959Z 05010KT 15SM FEW015 SCT050 BKN300 28/25 A2984 RMK LAST
Conditions at: PKMJ (MAJURO WSO AIRPO, MH, US) observed 1102 UTC 17 June 2019
Temperature: 28.0°C (82°F)
Dewpoint: 25.0°C (77°F) [RH = 84%]
Pressure (altimeter): 29.84 inches Hg (1010.6 mb)
Winds: from the NE (50 degrees) at 12 MPH (10 knots; 5.1 m/s)
Visibility: 15 miles (24 km)
Ceiling: 30000 feet AGL
Clouds: few clouds at 1500 feet AGL
scattered clouds at 5000 feet AGL
broken clouds at 30000 feet AGL
Weather: no significant weather observed at this time

METAR text: PKMJ 171959Z 05010KT 15SM FEW015 SCT050 BKN300 28/25 A2984 RMK LAST
Conditions at: PKMJ (MAJURO WSO AIRPO, MH, US) observed 1102 UTC 17 June 2019
Temperature: 28.0°C (82°F)
Dewpoint: 25.0°C (77°F) [RH = 84%]
Pressure (altimeter): 29.84 inches Hg (1010.6 mb)
Winds: from the NE (50 degrees) at 12 MPH (10 knots; 5.1 m/s)
Visibility: 15 miles (24 km)
Ceiling: 30000 feet AGL
Clouds: few clouds at 1500 feet AGL
scattered clouds at 5000 feet AGL
broken clouds at 30000 feet AGL
Weather: no significant weather observed at this time

METAR text: PKMJ 171959Z 05010KT 15SM FEW015 SCT050 BKN300 28/25 A2984 RMK LAST
Conditions at: PKMJ (MAJURO WSO AIRPO, MH, US) observed 1100 UTC 17 June 2019
Temperature: 28.0°C (82°F)
Dewpoint: 25.0°C (77°F) [RH = 84%]
Pressure (altimeter): 29.84 inches Hg (1010.6 mb)
Winds: from the NE (50 degrees) at 12 MPH (10 knots; 5.1 m/s)
Visibility: 15 miles (24 km)
Ceiling: 30000 feet AGL
Clouds: few clouds at 1500 feet AGL
scattered clouds at 5000 feet AGL
broken clouds at 30000 feet AGL
Weather: no significant weather observed at this time

METAR text: PKMJ 170957Z 05013KT 15SM FEW015 SCT050 BKN300 28/25 A2984
Conditions at: PKMJ (MAJURO WSO AIRPO, MH, US) observed 0957 UTC 17 June 2019
Temperature: 28.0°C (82°F)
Dewpoint: 25.0°C (77°F) [RH = 84%]
Pressure (altimeter): 29.84 inches Hg (1010.6 mb)
Winds: from the NE (50 degrees) at 15 MPH (13 knots; 6.7 m/s)
Visibility: 15 miles (24 km)
Ceiling: 30000 feet AGL
Clouds: few clouds at 1500 feet AGL
scattered clouds at 5000 feet AGL
broken clouds at 30000 feet AGL
Weather: no significant weather observed at this time

METAR text: PKMJ 170857Z 05012KT 15SM FEW015 SCT050 BKN300 29/25 A2982
Conditions at: PKMJ (MAJURO WSO AIRPO, MH, US) observed 0857 UTC 17 June 2019
Temperature: 29.0°C (84°F)
Dewpoint: 25.0°C (77°F) [RH = 79%]
Pressure (altimeter): 29.82 inches Hg (1009.9 mb)
Winds: from the NE (50 degrees) at 14 MPH (12 knots; 6.2 m/s)
Visibility: 15 miles (24 km)
Ceiling: 30000 feet AGL
Clouds: few clouds at 1500 feet AGL
scattered clouds at 5000 feet AGL
broken clouds at 30000 feet AGL
Weather: no significant weather observed at this time

METAR text: PKMJ 170759Z 05014KT 15SM FEW015 SCT050 BKN300 29/25 A2980
Conditions at: PKMJ (MAJURO WSO AIRPO, MH, US) observed 0759 UTC 17 June 2019
Temperature: 29.0°C (84°F)
Dewpoint: 25.0°C (77°F) [RH = 79%]
Pressure (altimeter): 29.80 inches Hg (1009.2 mb)
Winds: from the NE (50 degrees) at 16 MPH (14 knots; 7.2 m/s)
Visibility: 15 miles (24 km)
Ceiling: 30000 feet AGL
Clouds: few clouds at 1500 feet AGL
scattered clouds at 5000 feet AGL
broken clouds at 30000 feet AGL
Weather: no significant weather observed at this time

METAR text: PKMJ 170652Z 05017KT 15SM FEW015 SCT050 BKN120 BKN300 29/25 A2979
Conditions at: PKMJ (MAJURO WSO AIRPO, MH, US) observed 0652 UTC 17 June 2019
Temperature: 29.0°C (84°F)
Dewpoint: 25.0°C (77°F) [RH = 79%]
Pressure (altimeter): 29.79 inches Hg (1008.9 mb)
Winds: from the NE (50 degrees) at 20 MPH (17 knots; 8.7 m/s)
Visibility: 15 miles (24 km)
Ceiling: 12000 feet AGL
Clouds: few clouds at 1500 feet AGL
scattered clouds at 5000 feet AGL
broken clouds at 12000 feet AGL
broken clouds at 30000 feet AGL
Weather: no significant weather observed at this time

METAR text: PKMJ 170552Z 05016KT 15SM FEW015 SCT050 BKN120 OVC300 29/25 A2978
Conditions at: PKMJ (MAJURO WSO AIRPO, MH, US) observed 0552 UTC 17 June 2019
Temperature: 29.0°C (84°F)
Dewpoint: 25.0°C (77°F) [RH = 79%]
Pressure (altimeter): 29.78 inches Hg (1008.5 mb)
Winds: from the NE (50 degrees) at 18 MPH (16 knots; 8.2 m/s)
Visibility: 15 miles (24 km)
Ceiling: 12000 feet AGL
Clouds: few clouds at 1500 feet AGL
scattered clouds at 5000 feet AGL
broken clouds at 12000 feet AGL
overcast cloud deck at 30000 feet AGL
Weather: no significant weather observed at this time

METAR text: PKMJ 170459Z 06014KT 15SM FEW015 SCT050 BKN120 OVC300 29/25 A2976
Conditions at: PKMJ (MAJURO WSO AIRPO, MH, US) observed 0459 UTC 17 June 2019
Temperature: 29.0°C (84°F)
Dewpoint: 25.0°C (77°F) [RH = 79%]
Pressure (altimeter): 29.76 inches Hg (1007.9 mb)
Winds: from the ENE (60 degrees) at 16 MPH (14 knots; 7.2 m/s)
Visibility: 15 miles (24 km)
Ceiling: 12000 feet AGL
Clouds: few clouds at 1500 feet AGL
scattered clouds at 5000 feet AGL
broken clouds at 12000 feet AGL
overcast cloud deck at 30000 feet AGL
Weather: no significant weather observed at this time

METAR text: PKMJ 170355Z 06015KT 15SM FEW015 SCT050 BKN120 OVC300 30/25 A2975
Conditions at: PKMJ (MAJURO WSO AIRPO, MH, US) observed 0355 UTC 17 June 2019
Temperature: 30.0°C (86°F)
Dewpoint: 25.0°C (77°F) [RH = 75%]
Pressure (altimeter): 29.75 inches Hg (1007.5 mb)
Winds: from the ENE (60 degrees) at 17 MPH (15 knots; 7.7 m/s)
Visibility: 15 miles (24 km)
Ceiling: 12000 feet AGL
Clouds: few clouds at 1500 feet AGL
scattered clouds at 5000 feet AGL
broken clouds at 12000 feet AGL
overcast cloud deck at 30000 feet AGL
Weather: no significant weather observed at this time

METAR text: PKMJ 170258Z 05016KT 15SM FEW015 SCT050 BKN120 OVC300 30/25 A2976
Conditions at: PKMJ (MAJURO WSO AIRPO, MH, US) observed 0258 UTC 17 June 2019
Temperature: 30.0°C (86°F)
Dewpoint: 25.0°C (77°F) [RH = 75%]
Pressure (altimeter): 29.76 inches Hg (1007.9 mb)
Winds: from the NE (50 degrees) at 18 MPH (16 knots; 8.2 m/s)
Visibility: 15 miles (24 km)
Ceiling: 12000 feet AGL
Clouds: few clouds at 1500 feet AGL
scattered clouds at 5000 feet AGL
broken clouds at 12000 feet AGL
overcast cloud deck at 30000 feet AGL
Weather: no significant weather observed at this time

METAR text: PKMJ 170233Z 05013KT 15SM FEW015 SCT050 BKN120 OVC300 30/25 A2977 RMK FIRST
Conditions at: PKMJ (MAJURO WSO AIRPO, MH, US) observed 0233 UTC 17 June 2019
Temperature: 30.0°C (86°F)
Dewpoint: 25.0°C (77°F) [RH = 75%]
Pressure (altimeter): 29.77 inches Hg (1008.2 mb)
Winds: from the NE (50 degrees) at 15 MPH (13 knots; 6.7 m/s)
Visibility: 15 miles (24 km)
Ceiling: 12000 feet AGL
Clouds: few clouds at 1500 feet AGL
scattered clouds at 5000 feet AGL
broken clouds at 12000 feet AGL
overcast cloud deck at 30000 feet AGL
Weather: no significant weather observed at this time

METAR text: PKMJ 162352Z 06014KT 15SM FEW015 SCT050 BKN120 OVC300 29/25 A2982 RMK LAST
Conditions at: PKMJ (MAJURO WSO AIRPO, MH, US) observed 2352 UTC 16 June 2019
Temperature: 29.0°C (84°F)
Dewpoint: 25.0°C (77°F) [RH = 79%]
Pressure (altimeter): 29.82 inches Hg (1009.9 mb)
Winds: from the ENE (60 degrees) at 16 MPH (14 knots; 7.2 m/s)
Visibility: 15 miles (24 km)
Ceiling: 12000 feet AGL
Clouds: few clouds at 1500 feet AGL
scattered clouds at 5000 feet AGL
broken clouds at 12000 feet AGL
overcast cloud deck at 30000 feet AGL
Weather: no significant weather observed at this time

METAR text: PKMJ 162251Z 06014KT 15SM FEW015 SCT050 BKN120 OVC300 29/25 A2984
Conditions at: PKMJ (MAJURO WSO AIRPO, MH, US) observed 2251 UTC 16 June 2019
Temperature: 29.0°C (84°F)
Dewpoint: 25.0°C (77°F) [RH = 79%]
Pressure (altimeter): 29.84 inches Hg (1010.6 mb)
Winds: from the ENE (60 degrees) at 16 MPH (14 knots; 7.2 m/s)
Visibility: 15 miles (24 km)
Ceiling: 12000 feet AGL
Clouds: few clouds at 1500 feet AGL
scattered clouds at 5000 feet AGL
broken clouds at 12000 feet AGL
overcast cloud deck at 30000 feet AGL
Weather: no significant weather observed at this time

METAR text: PKMJ 162152Z 06015KT 14SM -RA SCT014 SCT050 BKN120 OVC300 28/25 A2983
Conditions at: PKMJ (MAJURO WSO AIRPO, MH, US) observed 2152 UTC 16 June 2019
Temperature: 28.0°C (82°F)
Dewpoint: 25.0°C (77°F) [RH = 84%]
Pressure (altimeter): 29.83 inches Hg (1010.2 mb)
Winds: from the ENE (60 degrees) at 17 MPH (15 knots; 7.7 m/s)
Visibility: 14 miles (23 km)
Ceiling: 12000 feet AGL
Clouds: scattered clouds at 1400 feet AGL
scattered clouds at 5000 feet AGL
broken clouds at 12000 feet AGL
overcast cloud deck at 30000 feet AGL
Weather: -RA  (light rain)

METAR text: PKMJ 162051Z 06020KT 15SM FEW015 SCT050 BKN120 OVC300 29/25 A2981
Conditions at: PKMJ (MAJURO WSO AIRPO, MH, US) observed 2051 UTC 16 June 2019
Temperature: 29.0°C (84°F)
Dewpoint: 25.0°C (77°F) [RH = 79%]
Pressure (altimeter): 29.81 inches Hg (1009.6 mb)
Winds: from the ENE (60 degrees) at 23 MPH (20 knots; 10.3 m/s)
Visibility: 15 miles (24 km)
Ceiling: 12000 feet AGL
Clouds: few clouds at 1500 feet AGL
scattered clouds at 5000 feet AGL
broken clouds at 12000 feet AGL
overcast cloud deck at 30000 feet AGL
Weather: no significant weather observed at this time

METAR text: PKMJ 162020Z 05020KT 15SM FEW015 SCT050 BKN120 OVC300 28/25 A2981 RMK FIRST
Conditions at: PKMJ (MAJURO WSO AIRPO, MH, US) observed 2020 UTC 16 June 2019
Temperature: 28.0°C (82°F)
Dewpoint: 25.0°C (77°F) [RH = 84%]
Pressure (altimeter): 29.81 inches Hg (1009.6 mb)
Winds: from the NE (50 degrees) at 23 MPH (20 knots; 10.3 m/s)
Visibility: 15 miles (24 km)
Ceiling: 12000 feet AGL
Clouds: few clouds at 1500 feet AGL
scattered clouds at 5000 feet AGL
broken clouds at 12000 feet AGL
overcast cloud deck at 30000 feet AGL
Weather: no significant weather observed at this time

METAR text: PKMJ 160759Z 06017T 15SM FEW015 SCT050 BKN120 OVC300 29/25 A2979 RMK LAST
Conditions at: PKMJ (MAJURO WSO AIRPO, MH, US) observed 0759 UTC 16 June 2019
Temperature: 29.0°C (84°F)
Dewpoint: 25.0°C (77°F) [RH = 79%]
Pressure (altimeter): 29.79 inches Hg (1008.9 mb)
Winds: missing
Visibility: 15 miles (24 km)
Ceiling: 12000 feet AGL
Clouds: few clouds at 1500 feet AGL
scattered clouds at 5000 feet AGL
broken clouds at 12000 feet AGL
overcast cloud deck at 30000 feet AGL
Weather: no significant weather observed at this time

METAR text: PKMJ 160653Z 05015T 15SM FEW015 SCT050 BKN120 OVC300 29/25 A2977
Conditions at: PKMJ (MAJURO WSO AIRPO, MH, US) observed 0653 UTC 16 June 2019
Temperature: 29.0°C (84°F)
Dewpoint: 25.0°C (77°F) [RH = 79%]
Pressure (altimeter): 29.77 inches Hg (1008.2 mb)
Winds: missing
Visibility: 15 miles (24 km)
Ceiling: 12000 feet AGL
Clouds: few clouds at 1500 feet AGL
scattered clouds at 5000 feet AGL
broken clouds at 12000 feet AGL
overcast cloud deck at 30000 feet AGL
Weather: no significant weather observed at this time

METAR text: PKMJ 160556Z 05016T 15SM FEW015 SCT050 BKN120 OVC300 30/26 A2975
Conditions at: PKMJ (MAJURO WSO AIRPO, MH, US) observed 0556 UTC 16 June 2019
Temperature: 30.0°C (86°F)
Dewpoint: 26.0°C (79°F) [RH = 79%]
Pressure (altimeter): 29.75 inches Hg (1007.5 mb)
Winds: missing
Visibility: 15 miles (24 km)
Ceiling: 12000 feet AGL
Clouds: few clouds at 1500 feet AGL
scattered clouds at 5000 feet AGL
broken clouds at 12000 feet AGL
overcast cloud deck at 30000 feet AGL
Weather: no significant weather observed at this time

METAR text: PKMJ 160452 06017T 15SM FEW015 SCT050 BKN300 30/26 A2974
Conditions at: PKMJ (MAJURO WSO AIRPO, MH, US) observed 0452 UTC 16 June 2019
Temperature: 30.0°C (86°F)
Dewpoint: 26.0°C (79°F) [RH = 79%]
Pressure (altimeter): 29.74 inches Hg (1007.2 mb)
Winds: missing
Visibility: 15 miles (24 km)
Ceiling: 30000 feet AGL
Clouds: few clouds at 1500 feet AGL
scattered clouds at 5000 feet AGL
broken clouds at 30000 feet AGL
Weather: no significant weather observed at this time

METAR text: PKMJ 160359Z 06015KT 15SM FEW015 SCT050 BKN300 30/26 A2974
Conditions at: PKMJ (MAJURO WSO AIRPO, MH, US) observed 0359 UTC 16 June 2019
Temperature: 30.0°C (86°F)
Dewpoint: 26.0°C (79°F) [RH = 79%]
Pressure (altimeter): 29.74 inches Hg (1007.2 mb)
Winds: from the ENE (60 degrees) at 17 MPH (15 knots; 7.7 m/s)
Visibility: 15 miles (24 km)
Ceiling: 30000 feet AGL
Clouds: few clouds at 1500 feet AGL
scattered clouds at 5000 feet AGL
broken clouds at 30000 feet AGL
Weather: no significant weather observed at this time

METAR text: PKMJ 160254Z 06016KT 15SM FEW015 SCT050 BKN300 31/26 A2975
Conditions at: PKMJ (MAJURO WSO AIRPO, MH, US) observed 0254 UTC 16 June 2019
Temperature: 31.0°C (88°F)
Dewpoint: 26.0°C (79°F) [RH = 75%]
Pressure (altimeter): 29.75 inches Hg (1007.5 mb)
Winds: from the ENE (60 degrees) at 18 MPH (16 knots; 8.2 m/s)
Visibility: 15 miles (24 km)
Ceiling: 30000 feet AGL
Clouds: few clouds at 1500 feet AGL
scattered clouds at 5000 feet AGL
broken clouds at 30000 feet AGL
Weather: no significant weather observed at this time

METAR text: PKMJ 160158Z 05020KT 15SM FEW015 SCT050 BKN300 31/26 A2976
Conditions at: PKMJ (MAJURO WSO AIRPO, MH, US) observed 0158 UTC 16 June 2019
Temperature: 31.0°C (88°F)
Dewpoint: 26.0°C (79°F) [RH = 75%]
Pressure (altimeter): 29.76 inches Hg (1007.9 mb)
Winds: from the NE (50 degrees) at 23 MPH (20 knots; 10.3 m/s)
Visibility: 15 miles (24 km)
Ceiling: 30000 feet AGL
Clouds: few clouds at 1500 feet AGL
scattered clouds at 5000 feet AGL
broken clouds at 30000 feet AGL
Weather: no significant weather observed at this time

METAR text: PKMJ 150124Z COR 06018KT 15SM FEW015 SCT050 BKN3000 31/26 A2977
Conditions at: PKMJ (MAJURO WSO AIRPO, MH, US) observed 0124 UTC 16 June 2019
Temperature: 31.0°C (88°F)
Dewpoint: 26.0°C (79°F) [RH = 75%]
Pressure (altimeter): 29.77 inches Hg (1008.2 mb)
Winds: from the ENE (60 degrees) at 21 MPH (18 knots; 9.3 m/s)
Visibility: 15 miles (24 km)
Ceiling: at least 12,000 feet AGL
Clouds: few clouds at 1500 feet AGL
scattered clouds at 5000 feet AGL
Weather: no significant weather observed at this time

Forecast for: PKMJ (MAJURO WSO AIRPO, MH, US)
Text: PKMJ 171120Z 1712/1812 05015KT P6SM VCSH FEW015 SCT050 SCT120
Forecast period: 1200 UTC 17 June 2019 to 1200 UTC 18 June 2019
Forecast type: FROM: standard forecast or significant change
Winds: from the NE (50 degrees) at 17 MPH (15 knots; 7.7 m/s)
Visibility: 6 or more miles 10+ km)
Ceiling: at least 12,000 feet AGL
Clouds: few clouds at 1500 feet AGL
scattered clouds at 5000 feet AGL
scattered clouds at 12000 feet AGL
Weather: VCSH  (showers in vicinity)